Terminal Aerodrome Forecast
Issued by NWS

Home | Current Version | Previous Version | Text Only | Print | Product List | Glossary On
Versions: 1 2 3 4 5 6 7 8 9 10 11 12
546
FTUS46 KPDT 282320
TAFBDN
TAF
KBDN 282320Z 2900/2924 32008KT P6SM SCT050
     FM290200 30006KT P6SM BKN045
     FM290500 27005KT P6SM BKN045
     FM291200 VRB04KT P6SM OVC040
     FM292000 31015G23KT P6SM -SHRA BKN040 OVC060=

USA.gov is the U.S. government's official web portal to all federal, state and local government web resources and services.